Bei Facebook empfehlenBei Twitter postenGoogle plusPinterest

Das Wetter im Erzgebirge am 22.04.2016

Wetter und Klima am 22.04.2016 Holzhau im Erzgebirge (630m ü.NN)
Letzte gemessene Temperatur und Uhrzeit der Messung23:45:00 Uhr-0.70 °C
Temperatur (Maximum / Höchstwert) und Uhrzeit der Messung15:15:00 Uhr12.80 °C
Temperatur (Minimum / Tiefstwert) und Uhrzeit der Messung05:00:00-2.50 °C
Errechneter Absolutwert der Temperaturschwankungen zwischen Tmin und Tmax des Tages15.30 K
Errechnete Tagesmitteltemperatur4.83333 °C
Gesamt - Niederschlag des Tages (in flüssiger Form)0.00 Liter / m²
Luftdruck (Maximum / Höchstwert) und Zeitpunkt der Messung00:00:00 Uhr1014.80 hPa
Luftdruck (Minimum / Tiefstwert) und Zeitpunkt der Messung23:45:00 Uhr1009.40 hPa
Errechneter Absolutwert der Luftdruckschwankungen des Tages5.40 hPa
Höchste gemessene Windgeschwindigkeit und Uhrzeit der Messung23:45:00 Uhr0.00 km/h
Errechnete Windhäufigkeit in Relation zu den Messwerten des Tages0.00000 %
Niedrigste Windkühle (Windchill) und Zeitpunkt der Messung05:00:00 Uhr-2.50 °C
Taupunkt (Maximum / Höchstwert) und Uhrzeit der Messung09:45:00 Uhr4.80 °C
Taupunkt (Minimum / Tiefstwert) und Uhrzeit der Messung05:00:00-4.20 °C
Anzahl der automatisch eingelesenen Messwerte 96

Detaillierte Wetter- und Klima- Messwerte für den 22.04.2016 in Holzhau im Erzgebirge (630m ü.NN)
ZeitTemperaturLuftdruckRel. LuftfeuchteWindWindrichtungWindchillTaupunktNiederschlag l/m²
23:45:00-0.70 °C1009.40 hPa81.00 %-3.90 °C 
23:30:00-0.50 °C1009.50 hPa80.00 %-3.90 °C 
23:15:00-0.10 °C1009.70 hPa80.00 %-3.50 °C 
23:00:000.10 °C1009.60 hPa79.00 %-3.10 °C 
22:45:000.40 °C1009.60 hPa79.00 %-2.80 °C 
22:30:000.40 °C1009.60 hPa78.00 %-3.00 °C 
22:15:000.80 °C1009.90 hPa77.00 %-2.80 °C 
22:00:001.10 °C1010.00 hPa77.00 %-2.50 °C 
21:45:001.30 °C1010.00 hPa76.00 %-2.50 °C 
21:30:001.40 °C1010.30 hPa74.00 %-2.70 °C 
21:15:001.80 °C1010.30 hPa74.00 %-2.30 °C 
21:00:002.00 °C1010.30 hPa72.00 %-2.50 °C 
20:45:002.30 °C1010.50 hPa71.00 %-2.40 °C 
20:30:002.70 °C1010.50 hPa70.00 %-2.20 °C 
20:15:002.90 °C1010.60 hPa68.00 %-2.40 °C 
20:00:003.30 °C1010.60 hPa66.00 %-2.40 °C 
19:45:003.90 °C1010.50 hPa64.00 %-2.30 °C 
19:30:004.60 °C1010.50 hPa62.00 %-2.00 °C 
19:15:005.40 °C1010.40 hPa60.00 %-1.70 °C 
19:00:006.40 °C1010.60 hPa58.00 %-1.20 °C 
18:45:007.40 °C1010.70 hPa55.00 %-1.00 °C 
18:30:008.40 °C1010.70 hPa52.00 %-0.90 °C 
18:15:009.20 °C1010.60 hPa50.00 %-0.70 °C 
18:00:009.80 °C1010.70 hPa50.00 %-0.10 °C 
17:45:009.90 °C1010.80 hPa49.00 %-0.30 °C 
17:30:0010.40 °C1011.10 hPa46.00 %-0.70 °C 
17:15:0010.50 °C1011.10 hPa46.00 %-0.60 °C 
17:00:0010.90 °C1011.20 hPa46.00 %-0.20 °C 
16:45:0011.30 °C1011.30 hPa46.00 %0.10 °C 
16:30:0011.80 °C1011.50 hPa46.00 %0.60 °C 
16:15:0012.10 °C1011.40 hPa46.00 %0.80 °C 
16:00:0012.30 °C1011.50 hPa44.00 %0.40 °C 
15:45:0012.50 °C1011.60 hPa46.00 %1.20 °C 
15:30:0012.60 °C1011.90 hPa46.00 %1.30 °C 
15:15:0012.80 °C1012.00 hPa47.00 %1.80 °C 
15:00:0012.40 °C1012.10 hPa48.00 %1.70 °C 
14:45:0012.30 °C1012.30 hPa48.00 %1.60 °C 
14:30:0012.80 °C1012.30 hPa51.00 %2.90 °C 
14:15:0012.40 °C1012.50 hPa52.00 %2.80 °C 
14:00:0012.40 °C1012.40 hPa54.00 %3.40 °C 
13:45:0012.20 °C1012.70 hPa56.00 %3.70 °C 
13:30:0011.90 °C1013.00 hPa56.00 %3.40 °C 
13:15:0011.80 °C1013.00 hPa58.00 %3.80 °C 
13:00:0011.60 °C1013.10 hPa59.00 %3.90 °C 
12:45:0011.30 °C1013.20 hPa59.00 %3.60 °C 
12:30:0011.00 °C1013.40 hPa60.00 %3.50 °C 
12:15:0010.80 °C1013.30 hPa62.00 %3.80 °C 
12:00:0010.50 °C1013.50 hPa63.00 %3.80 °C 
11:45:0010.50 °C1013.80 hPa65.00 %4.20 °C 
11:30:009.80 °C1013.90 hPa64.00 %3.30 °C 
11:15:009.90 °C1013.80 hPa66.00 %3.90 °C 
11:00:009.60 °C1014.10 hPa67.00 %3.80 °C 
10:45:009.20 °C1014.20 hPa69.00 %3.80 °C 
10:30:009.50 °C1014.20 hPa70.00 %4.30 °C 
10:15:009.20 °C1014.20 hPa72.00 %4.40 °C 
10:00:008.90 °C1014.20 hPa75.00 %4.70 °C 
09:45:008.40 °C1014.20 hPa78.00 %4.80 °C 
09:30:007.40 °C1014.10 hPa80.00 %4.20 °C 
09:15:006.40 °C1014.10 hPa83.00 %3.70 °C 
09:00:005.80 °C1014.00 hPa84.00 %3.30 °C 
08:45:005.50 °C1014.00 hPa86.00 %3.30 °C 
08:30:004.80 °C1014.00 hPa87.00 %2.80 °C 
08:15:004.40 °C1014.20 hPa87.00 %2.40 °C 
08:00:004.40 °C1014.30 hPa88.00 %2.60 °C 
07:45:004.20 °C1014.30 hPa89.00 %2.60 °C 
07:30:004.40 °C1014.40 hPa89.00 %2.80 °C 
07:15:004.40 °C1014.20 hPa90.00 %2.90 °C 
07:00:003.80 °C1013.90 hPa91.00 %2.50 °C 
06:45:002.60 °C1013.90 hPa91.00 %1.30 °C 
06:30:001.00 °C1013.90 hPa91.00 %-0.30 °C 
06:15:00-0.50 °C1013.80 hPa90.00 %-2.10 °C 
06:00:00-1.50 °C1013.90 hPa90.00 %-3.10 °C 
05:45:00-2.10 °C1013.80 hPa89.00 %-3.90 °C 
05:30:00-2.20 °C1014.00 hPa89.00 %-4.00 °C 
05:15:00-2.40 °C1013.90 hPa89.00 %-4.10 °C 
05:00:00-2.50 °C1013.90 hPa89.00 %-4.20 °C 
04:45:00-2.50 °C1013.90 hPa89.00 %-4.20 °C 
04:30:00-2.40 °C1013.80 hPa89.00 %-4.10 °C 
04:15:00-2.20 °C1013.70 hPa89.00 %-4.00 °C 
04:00:00-1.90 °C1013.70 hPa88.00 %-3.80 °C 
03:45:00-1.80 °C1013.70 hPa88.00 %-3.70 °C 
03:30:00-1.70 °C1013.70 hPa88.00 %-3.60 °C 
03:15:00-1.60 °C1013.80 hPa88.00 %-3.50 °C 
03:00:00-1.60 °C1014.00 hPa88.00 %-3.50 °C 
02:45:00-1.50 °C1014.10 hPa87.00 %-3.60 °C 
02:30:00-1.40 °C1014.10 hPa87.00 %-3.50 °C 
02:15:00-1.20 °C1014.20 hPa87.00 %-3.30 °C 
02:00:00-1.10 °C1014.20 hPa87.00 %-3.20 °C 
01:45:00-0.90 °C1014.20 hPa87.00 %-3.00 °C 
01:30:00-0.80 °C1014.20 hPa87.00 %-2.90 °C 
01:15:00-0.60 °C1014.40 hPa86.00 %-2.90 °C 
01:00:00-0.50 °C1014.40 hPa86.00 %-2.80 °C 
00:45:00-0.30 °C1014.40 hPa86.00 %-2.60 °C 
00:30:00-0.10 °C1014.60 hPa86.00 %-2.40 °C 
00:15:000.10 °C1014.60 hPa85.00 %-2.10 °C 
00:00:000.30 °C1014.80 hPa85.00 %-1.90 °C 

Permanenter Link zu dieser Seite: Wetter im Erzgebirge am 22.04.2016
Performance-Info: Die Erstellung der Seite / Statistik(en) / Tabelle(n) erforderte 5 Datenbankserver-Abfrage(n) und dauerte 96 Millisekunden. (Dieser Messwert ist von der Gesamt-Auslastung des Servers abhängig.)
Erzgebirge - Wetter | Erzgebirge - Wetter (Mobilgeräte) | Komplette Klimadatenbank